createdAt,value
2024-01-24T00:00:21.409Z,1.30
2024-01-24T00:02:50.371Z,1.34
2024-01-24T00:05:17.871Z,1.34
2024-01-24T00:07:44.859Z,1.29
2024-01-24T00:10:12.445Z,1.28
2024-01-24T00:12:39.518Z,1.21
2024-01-24T00:15:07.034Z,1.20
2024-01-24T00:17:34.052Z,1.15
2024-01-24T00:20:01.101Z,1.14
2024-01-24T00:22:28.880Z,1.20
2024-01-24T00:24:55.898Z,1.21
2024-01-24T00:27:22.991Z,1.14
2024-01-24T00:29:50.056Z,1.25
2024-01-24T00:32:17.177Z,1.16
2024-01-24T00:34:44.838Z,1.18
2024-01-24T00:37:11.838Z,1.22
2024-01-24T00:39:39.056Z,1.20
2024-01-24T00:42:06.759Z,1.20
2024-01-24T00:44:33.817Z,1.22
2024-01-24T00:47:00.729Z,1.19
2024-01-24T00:49:28.377Z,1.14
2024-01-24T00:51:55.397Z,0.97
2024-01-24T00:54:22.477Z,1.20
2024-01-24T00:56:49.391Z,1.18
2024-01-24T00:59:16.458Z,1.15
2024-01-24T01:01:43.413Z,1.18
2024-01-24T01:04:10.466Z,1.17
2024-01-24T01:06:37.573Z,1.23
2024-01-24T01:09:04.549Z,1.26
2024-01-24T01:11:31.498Z,1.24
2024-01-24T01:13:58.705Z,1.22
2024-01-24T01:16:25.624Z,1.20
2024-01-24T01:18:52.744Z,1.25
2024-01-24T01:21:19.717Z,1.35
2024-01-24T01:23:46.657Z,1.35
2024-01-24T01:26:14.247Z,1.61
2024-01-24T01:28:41.274Z,1.84
2024-01-24T01:31:08.208Z,1.76
2024-01-24T01:33:35.278Z,1.55
2024-01-24T01:36:09.021Z,1.53
2024-01-24T01:38:44.693Z,1.57
2024-01-24T01:41:11.699Z,1.65
2024-01-24T01:43:38.719Z,1.66
2024-01-24T01:46:08.399Z,1.62
2024-01-24T01:48:35.894Z,1.53
2024-01-24T01:51:03.154Z,1.52
2024-01-24T01:53:30.482Z,1.45
2024-01-24T01:55:58.381Z,1.44
2024-01-24T01:58:25.369Z,1.42
2024-01-24T02:00:52.490Z,1.45
2024-01-24T02:03:19.530Z,1.35
2024-01-24T02:05:46.712Z,1.34
2024-01-24T02:08:14.003Z,1.34
2024-01-24T02:10:41.001Z,1.23
2024-01-24T02:13:07.960Z,1.26
2024-01-24T02:15:34.942Z,1.38
2024-01-24T02:18:01.944Z,1.28
2024-01-24T02:20:31.116Z,1.23
2024-01-24T02:22:58.281Z,1.35
2024-01-24T02:25:25.349Z,1.17
2024-01-24T02:27:52.325Z,1.15
2024-01-24T02:30:19.369Z,1.09
2024-01-24T02:32:47.072Z,1.22
2024-01-24T02:35:14.064Z,1.35
2024-01-24T02:37:41.519Z,1.32
2024-01-24T02:40:09.234Z,1.40
2024-01-24T02:42:36.401Z,1.43
2024-01-24T02:45:03.554Z,1.15
2024-01-24T02:47:30.574Z,1.20
2024-01-24T02:50:00.405Z,1.20
2024-01-24T02:52:27.540Z,1.16
2024-01-24T02:54:54.957Z,1.09
2024-01-24T02:57:21.947Z,1.27
2024-01-24T02:59:48.928Z,1.32
2024-01-24T03:02:15.834Z,1.29
2024-01-24T03:04:42.895Z,1.17
2024-01-24T03:07:10.088Z,1.21
2024-01-24T03:09:37.080Z,1.25
2024-01-24T03:12:04.335Z,1.29
2024-01-24T03:14:31.230Z,1.28
2024-01-24T03:16:58.211Z,1.15
2024-01-24T03:19:26.366Z,1.25
2024-01-24T03:21:54.037Z,1.31
2024-01-24T03:24:21.121Z,1.31
2024-01-24T03:26:48.148Z,1.47
2024-01-24T03:29:15.099Z,1.44
2024-01-24T03:31:45.013Z,1.45
2024-01-24T03:34:12.784Z,1.45
2024-01-24T03:36:39.973Z,1.45
2024-01-24T03:39:07.237Z,1.50
2024-01-24T03:41:34.239Z,1.63
2024-01-24T03:44:01.202Z,1.55
2024-01-24T03:46:28.199Z,1.49
2024-01-24T03:48:55.200Z,1.46
2024-01-24T03:51:22.276Z,1.44
2024-01-24T03:53:49.227Z,1.55
2024-01-24T03:56:16.849Z,1.48
2024-01-24T03:58:43.807Z,1.43
2024-01-24T04:01:12.089Z,1.46
2024-01-24T04:03:39.374Z,1.55
2024-01-24T04:06:06.570Z,1.51
2024-01-24T04:08:33.543Z,1.46
2024-01-24T04:11:00.492Z,1.54
2024-01-24T04:13:27.428Z,1.36
2024-01-24T04:15:54.517Z,1.50
2024-01-24T04:18:21.528Z,1.42
2024-01-24T04:20:48.542Z,1.38
2024-01-24T04:23:15.573Z,1.37
2024-01-24T04:25:42.608Z,1.44
2024-01-24T04:28:10.488Z,1.53
2024-01-24T04:30:37.599Z,1.52
2024-01-24T04:33:05.469Z,1.40
2024-01-24T04:35:32.910Z,1.40
2024-01-24T04:37:59.975Z,1.41
2024-01-24T04:40:26.924Z,1.37
2024-01-24T04:42:53.962Z,1.41
2024-01-24T04:45:20.987Z,1.49
2024-01-24T04:47:48.019Z,1.50
2024-01-24T04:50:15.342Z,1.45
2024-01-24T04:52:42.295Z,1.43
2024-01-24T04:55:13.442Z,1.44
2024-01-24T04:57:41.513Z,1.43
2024-01-24T05:00:09.779Z,1.44
2024-01-24T05:02:38.760Z,1.42
2024-01-24T05:05:09.597Z,1.50
2024-01-24T05:07:37.169Z,1.42
2024-01-24T05:10:05.787Z,1.35
2024-01-24T05:12:33.260Z,1.40
2024-01-24T05:15:00.326Z,1.35
2024-01-24T05:17:27.460Z,1.41
2024-01-24T05:19:55.632Z,1.44
2024-01-24T05:22:22.893Z,1.46
2024-01-24T05:24:50.034Z,1.48
2024-01-24T05:27:17.385Z,1.48
2024-01-24T05:29:47.014Z,1.52
2024-01-24T05:32:14.690Z,1.52
2024-01-24T05:34:41.917Z,1.55
2024-01-24T05:37:09.082Z,1.61
2024-01-24T05:39:36.134Z,1.62
2024-01-24T05:42:03.240Z,1.55
2024-01-24T05:44:30.194Z,1.54
2024-01-24T05:46:57.422Z,1.55
2024-01-24T05:49:24.430Z,1.54
2024-01-24T05:51:51.470Z,1.56
2024-01-24T05:54:18.615Z,1.57
2024-01-24T05:56:45.951Z,1.59
2024-01-24T05:59:15.166Z,1.76
2024-01-24T06:01:44.221Z,1.59
2024-01-24T06:04:11.376Z,1.57
2024-01-24T06:06:38.597Z,1.57
2024-01-24T06:09:05.720Z,1.56
2024-01-24T06:11:32.853Z,1.56
2024-01-24T06:13:59.920Z,1.54
2024-01-24T06:16:26.990Z,1.53
2024-01-24T06:18:54.179Z,1.50
2024-01-24T06:21:21.799Z,1.53
2024-01-24T06:23:48.869Z,1.57
2024-01-24T06:26:16.133Z,1.64
2024-01-24T06:28:43.059Z,1.68
2024-01-24T06:31:10.402Z,1.67
2024-01-24T06:33:37.532Z,1.77
2024-01-24T06:36:04.854Z,1.69
2024-01-24T06:38:31.969Z,1.78
2024-01-24T06:40:58.938Z,1.85
2024-01-24T06:43:26.329Z,1.98
2024-01-24T06:45:53.285Z,1.87
2024-01-24T06:48:20.396Z,1.81
2024-01-24T06:50:47.420Z,1.81
2024-01-24T06:53:16.070Z,1.86
2024-01-24T06:55:43.229Z,1.86
2024-01-24T06:58:10.461Z,1.88
2024-01-24T07:00:37.685Z,1.91
2024-01-24T07:03:05.191Z,2.10
2024-01-24T07:05:32.182Z,2.20
2024-01-24T07:07:59.249Z,2.17
2024-01-24T07:10:26.232Z,2.19
2024-01-24T07:12:53.439Z,2.07
2024-01-24T07:15:20.589Z,2.17
2024-01-24T07:17:48.020Z,2.17
2024-01-24T07:20:17.114Z,2.07
2024-01-24T07:22:44.147Z,2.17
2024-01-24T07:25:11.345Z,2.31
2024-01-24T07:27:38.555Z,2.30
2024-01-24T07:30:06.353Z,2.34
2024-01-24T07:32:33.713Z,2.14
2024-01-24T07:35:01.125Z,2.29
2024-01-24T07:37:28.415Z,2.28
2024-01-24T07:39:56.129Z,2.29
2024-01-24T07:42:23.171Z,2.40
2024-01-24T07:44:50.242Z,2.26
2024-01-24T07:47:21.471Z,2.70
2024-01-24T07:49:48.898Z,2.55
2024-01-24T07:52:25.386Z,3.17
2024-01-24T07:55:01.456Z,3.14
2024-01-24T07:57:28.999Z,3.31
2024-01-24T07:59:57.136Z,3.11
2024-01-24T08:02:24.789Z,3.05
2024-01-24T08:04:52.274Z,2.79
2024-01-24T08:07:20.379Z,2.93
2024-01-24T08:09:48.101Z,2.96
2024-01-24T08:12:16.912Z,2.91
2024-01-24T08:14:44.114Z,3.23
2024-01-24T08:17:15.575Z,3.23
2024-01-24T08:19:42.746Z,3.06
2024-01-24T08:22:09.886Z,3.06
2024-01-24T08:24:37.101Z,3.04
2024-01-24T08:27:04.452Z,2.95
2024-01-24T08:29:36.900Z,3.02
2024-01-24T08:32:06.692Z,3.10
2024-01-24T08:34:36.625Z,3.11
2024-01-24T08:37:04.137Z,3.09
2024-01-24T08:39:31.194Z,3.19
2024-01-24T08:41:58.653Z,3.15
2024-01-24T08:44:25.616Z,3.15
2024-01-24T08:46:52.573Z,3.32
2024-01-24T08:49:19.882Z,3.25
2024-01-24T08:51:47.063Z,3.18
2024-01-24T08:54:14.232Z,3.11
2024-01-24T08:56:41.727Z,3.10
2024-01-24T08:59:08.778Z,3.27
2024-01-24T09:01:36.014Z,3.22
2024-01-24T09:04:03.409Z,3.38
2024-01-24T09:06:30.814Z,3.29
2024-01-24T09:08:58.115Z,3.44
2024-01-24T09:11:31.749Z,3.52
2024-01-24T09:14:05.148Z,3.38
2024-01-24T09:16:32.302Z,3.61
2024-01-24T09:18:59.854Z,3.38
2024-01-24T09:21:27.165Z,3.36
2024-01-24T09:23:54.236Z,3.36
2024-01-24T09:26:22.608Z,3.44
2024-01-24T09:28:49.644Z,3.65
2024-01-24T09:31:17.193Z,3.64
2024-01-24T09:33:44.393Z,3.68
2024-01-24T09:36:11.492Z,3.74
2024-01-24T09:38:38.650Z,3.89
2024-01-24T09:41:12.370Z,3.98
2024-01-24T09:43:40.213Z,3.95
2024-01-24T09:46:11.239Z,3.89
2024-01-24T09:48:38.282Z,4.02
2024-01-24T09:51:05.591Z,4.23
2024-01-24T09:53:33.751Z,4.28
2024-01-24T09:56:03.100Z,4.11
2024-01-24T09:58:30.140Z,4.31
2024-01-24T10:00:58.047Z,4.42
2024-01-24T10:03:25.867Z,4.29
2024-01-24T10:05:53.993Z,4.59
2024-01-24T10:08:21.046Z,4.93
2024-01-24T10:10:48.003Z,4.73
2024-01-24T10:13:15.248Z,4.79
2024-01-24T10:15:42.281Z,4.71
2024-01-24T10:18:09.532Z,5.30
2024-01-24T10:20:37.232Z,5.43
2024-01-24T10:23:05.402Z,5.20
2024-01-24T10:25:32.410Z,5.17
2024-01-24T10:27:59.549Z,5.20
2024-01-24T10:30:28.074Z,5.52
2024-01-24T10:32:55.079Z,5.49
2024-01-24T10:35:22.400Z,5.51
2024-01-24T10:37:49.573Z,5.72
2024-01-24T10:40:17.826Z,5.62
2024-01-24T10:42:46.142Z,5.71
2024-01-24T10:45:15.102Z,5.68
2024-01-24T10:47:43.108Z,5.71
2024-01-24T10:50:11.659Z,5.64
2024-01-24T10:52:40.153Z,5.58
2024-01-24T10:55:09.114Z,5.70
2024-01-24T10:57:36.959Z,5.74
2024-01-24T11:00:12.864Z,5.72
2024-01-24T11:02:45.064Z,6.14
2024-01-24T11:05:23.758Z,6.37
2024-01-24T11:08:02.993Z,6.59
2024-01-24T11:10:37.632Z,6.61
2024-01-24T11:13:06.433Z,6.65
2024-01-24T11:15:34.381Z,6.66
2024-01-24T11:18:24.067Z,6.60
2024-01-24T11:21:01.414Z,6.90
2024-01-24T11:23:47.237Z,7.07
2024-01-24T11:26:34.171Z,7.12
2024-01-24T11:29:14.265Z,7.40
2024-01-24T11:31:43.590Z,7.57
2024-01-24T11:34:14.894Z,7.56
2024-01-24T11:36:48.748Z,7.61
2024-01-24T11:39:41.294Z,7.74
2024-01-24T11:42:37.998Z,8.03
2024-01-24T11:45:18.506Z,8.11
2024-01-24T11:47:46.110Z,8.43
2024-01-24T11:50:13.718Z,9.56
2024-01-24T11:52:41.678Z,9.86
2024-01-24T11:55:09.156Z,9.32
2024-01-24T11:57:36.333Z,9.64
2024-01-24T12:00:07.584Z,9.51
2024-01-24T12:02:35.652Z,9.15
2024-01-24T12:05:03.160Z,10.31
2024-01-24T12:07:30.338Z,10.73
2024-01-24T12:09:57.285Z,11.66
2024-01-24T12:12:24.902Z,11.37
2024-01-24T12:14:54.742Z,11.18
2024-01-24T12:17:22.753Z,11.17
2024-01-24T12:19:49.951Z,10.92
2024-01-24T12:22:17.471Z,10.79
2024-01-24T12:24:44.679Z,10.53
2024-01-24T12:27:12.130Z,10.96
2024-01-24T12:29:40.340Z,12.63
2024-01-24T12:32:08.380Z,13.08
2024-01-24T12:34:35.760Z,12.82
2024-01-24T12:37:03.142Z,12.26
2024-01-24T12:39:33.444Z,11.83
2024-01-24T12:42:01.607Z,11.71
2024-01-24T12:44:29.004Z,11.59
2024-01-24T12:47:00.242Z,11.62
2024-01-24T12:49:28.116Z,11.15
2024-01-24T12:51:55.905Z,11.09
2024-01-24T12:54:23.377Z,11.23
2024-01-24T12:56:51.904Z,11.30
2024-01-24T12:59:19.370Z,11.25
2024-01-24T13:01:46.671Z,11.04
2024-01-24T13:04:13.957Z,11.08
2024-01-24T13:06:42.017Z,10.95
2024-01-24T13:09:10.336Z,10.89
2024-01-24T13:11:37.646Z,11.19
2024-01-24T13:14:04.848Z,11.72
2024-01-24T13:16:32.028Z,12.82
2024-01-24T13:18:59.102Z,12.76
2024-01-24T13:21:26.219Z,12.30
2024-01-24T13:23:53.359Z,12.77
2024-01-24T13:26:20.449Z,14.07
2024-01-24T13:28:47.478Z,13.54
2024-01-24T13:31:15.469Z,14.21
2024-01-24T13:33:45.390Z,12.74
2024-01-24T13:36:12.882Z,13.38
2024-01-24T13:38:40.647Z,14.08
2024-01-24T13:41:08.107Z,13.98
2024-01-24T13:43:35.201Z,14.16
2024-01-24T13:46:02.215Z,13.89
2024-01-24T13:48:29.368Z,14.40
2024-01-24T13:50:59.584Z,14.55
2024-01-24T13:53:27.310Z,14.36
2024-01-24T13:55:54.323Z,14.44
2024-01-24T13:58:21.689Z,14.72
2024-01-24T14:00:49.688Z,14.38
2024-01-24T14:03:16.860Z,13.77
2024-01-24T14:05:43.904Z,14.03
2024-01-24T14:08:11.085Z,14.42
2024-01-24T14:10:38.107Z,13.85
2024-01-24T14:13:05.255Z,13.66
2024-01-24T14:15:35.058Z,12.75
2024-01-24T14:18:04.710Z,13.67
2024-01-24T14:20:32.052Z,13.93
2024-01-24T14:22:59.015Z,13.76
2024-01-24T14:25:26.041Z,13.74
2024-01-24T14:27:53.178Z,13.52
2024-01-24T14:30:20.648Z,13.37
2024-01-24T14:32:47.772Z,13.72
2024-01-24T14:35:19.082Z,14.14
2024-01-24T14:37:47.554Z,13.93
2024-01-24T14:40:17.538Z,14.00
2024-01-24T14:42:44.708Z,13.72
2024-01-24T14:45:11.702Z,13.60
2024-01-24T14:47:39.072Z,13.70
2024-01-24T14:50:09.888Z,13.52
2024-01-24T14:52:37.263Z,13.01
2024-01-24T14:55:04.765Z,12.73
2024-01-24T14:57:33.650Z,13.36
2024-01-24T15:00:01.341Z,13.65
2024-01-24T15:02:28.618Z,13.44
2024-01-24T15:04:55.984Z,13.33
2024-01-24T15:07:25.161Z,13.50
2024-01-24T15:09:52.181Z,13.21
2024-01-24T15:12:19.105Z,12.95
2024-01-24T15:14:46.036Z,13.10
2024-01-24T15:17:12.955Z,13.06
2024-01-24T15:19:47.718Z,12.59
2024-01-24T15:22:20.905Z,11.85
2024-01-24T15:24:50.110Z,11.24
2024-01-24T15:27:21.590Z,11.88
2024-01-24T15:29:49.721Z,11.42
2024-01-24T15:32:17.153Z,11.49
2024-01-24T15:34:44.460Z,11.21
2024-01-24T15:37:11.776Z,11.00
2024-01-24T15:39:39.895Z,10.69
2024-01-24T15:42:11.501Z,10.52
2024-01-24T15:44:38.716Z,10.29
2024-01-24T15:47:05.993Z,10.21
2024-01-24T15:49:33.209Z,10.52
2024-01-24T15:52:00.356Z,10.51
2024-01-24T15:54:28.280Z,10.27
2024-01-24T15:56:55.374Z,9.71
2024-01-24T15:59:22.327Z,9.36
2024-01-24T16:01:50.456Z,9.16
2024-01-24T16:04:19.135Z,9.06
2024-01-24T16:06:46.369Z,9.45
2024-01-24T16:09:13.565Z,9.34
2024-01-24T16:11:40.877Z,9.30
2024-01-24T16:14:09.031Z,9.28
2024-01-24T16:16:36.368Z,8.87
2024-01-24T16:19:03.330Z,8.53
2024-01-24T16:21:30.519Z,8.62
2024-01-24T16:23:57.530Z,8.49
2024-01-24T16:26:24.496Z,9.20
2024-01-24T16:28:51.463Z,8.64
2024-01-24T16:31:19.410Z,8.67
2024-01-24T16:33:46.508Z,8.65
2024-01-24T16:36:13.742Z,8.41
2024-01-24T16:38:40.890Z,8.29
2024-01-24T16:41:09.737Z,8.22
2024-01-24T16:43:38.979Z,8.13
2024-01-24T16:46:06.961Z,8.19
2024-01-24T16:48:34.278Z,8.23
2024-01-24T16:51:01.704Z,8.10
2024-01-24T16:53:34.953Z,8.29
2024-01-24T16:56:02.028Z,8.19
2024-01-24T16:58:29.006Z,8.00
2024-01-24T17:00:56.215Z,8.06
2024-01-24T17:03:23.239Z,8.02
2024-01-24T17:05:50.410Z,8.05
2024-01-24T17:08:17.593Z,7.95
2024-01-24T17:10:44.635Z,7.93
2024-01-24T17:13:11.604Z,7.86
2024-01-24T17:15:38.641Z,7.91
2024-01-24T17:18:06.236Z,9.24
2024-01-24T17:20:33.947Z,9.15
2024-01-24T17:23:01.104Z,8.36
2024-01-24T17:25:29.806Z,7.32
2024-01-24T17:27:57.861Z,7.83
2024-01-24T17:30:25.022Z,7.82
2024-01-24T17:32:52.060Z,7.73
2024-01-24T17:35:19.032Z,7.63
2024-01-24T17:37:46.106Z,7.65
2024-01-24T17:40:13.498Z,7.58
2024-01-24T17:42:40.860Z,7.73
2024-01-24T17:45:08.313Z,7.59
2024-01-24T17:47:36.366Z,7.35
2024-01-24T17:50:04.239Z,7.20
2024-01-24T17:52:31.402Z,7.26
2024-01-24T17:55:01.902Z,7.44
2024-01-24T17:57:29.318Z,7.57
2024-01-24T17:59:56.687Z,7.15
2024-01-24T18:02:24.270Z,7.13
2024-01-24T18:04:51.607Z,7.12
2024-01-24T18:07:21.171Z,7.04
2024-01-24T18:09:49.728Z,6.89
2024-01-24T18:12:17.223Z,6.82
2024-01-24T18:14:44.199Z,6.82
2024-01-24T18:17:11.487Z,6.77
2024-01-24T18:19:38.549Z,6.42
2024-01-24T18:22:05.838Z,6.32
2024-01-24T18:24:32.808Z,6.37
2024-01-24T18:26:59.761Z,6.47
2024-01-24T18:29:26.671Z,6.61
2024-01-24T18:31:53.652Z,6.40
2024-01-24T18:34:21.143Z,6.31
2024-01-24T18:36:48.229Z,6.35
2024-01-24T18:39:15.275Z,6.31
2024-01-24T18:41:42.582Z,5.97
2024-01-24T18:44:09.507Z,5.96
2024-01-24T18:46:36.529Z,6.04
2024-01-24T18:49:04.958Z,6.04
2024-01-24T18:51:32.405Z,6.14
2024-01-24T18:53:59.468Z,6.82
2024-01-24T18:56:28.166Z,7.57
2024-01-24T18:58:55.366Z,8.15
2024-01-24T19:01:23.397Z,8.27
2024-01-24T19:03:56.163Z,8.15
2024-01-24T19:06:26.700Z,7.94
2024-01-24T19:08:53.981Z,7.96
2024-01-24T19:11:21.036Z,8.12
2024-01-24T19:13:48.243Z,8.27
2024-01-24T19:16:15.335Z,8.09
2024-01-24T19:18:44.351Z,8.00
2024-01-24T19:21:11.442Z,7.95
2024-01-24T19:23:38.404Z,8.02
2024-01-24T19:26:05.422Z,7.88
2024-01-24T19:28:32.566Z,7.64
2024-01-24T19:31:03.824Z,7.24
2024-01-24T19:33:30.940Z,7.11
2024-01-24T19:35:57.988Z,7.02
2024-01-24T19:38:24.879Z,6.68
2024-01-24T19:40:51.995Z,6.82
2024-01-24T19:43:19.714Z,6.47
2024-01-24T19:45:46.770Z,7.12
2024-01-24T19:48:14.641Z,6.79
2024-01-24T19:50:41.825Z,6.58
2024-01-24T19:53:12.736Z,7.06
2024-01-24T19:55:42.498Z,7.47
2024-01-24T19:58:09.596Z,6.96
2024-01-24T20:00:38.074Z,7.15
2024-01-24T20:03:05.268Z,7.02
2024-01-24T20:05:32.325Z,7.24
2024-01-24T20:07:59.366Z,7.54
2024-01-24T20:10:26.530Z,7.35
2024-01-24T20:12:53.929Z,7.29
2024-01-24T20:15:22.576Z,7.47
2024-01-24T20:17:49.670Z,7.50
2024-01-24T20:20:18.037Z,7.39
2024-01-24T20:22:45.025Z,7.74
2024-01-24T20:25:11.987Z,7.44
2024-01-24T20:27:39.218Z,7.39
2024-01-24T20:30:06.893Z,7.10
2024-01-24T20:32:40.100Z,6.63
2024-01-24T20:35:12.528Z,6.21
2024-01-24T20:37:39.640Z,6.09
2024-01-24T20:40:07.320Z,5.92
2024-01-24T20:42:34.448Z,5.76
2024-01-24T20:45:01.632Z,5.64
2024-01-24T20:47:28.717Z,5.61
2024-01-24T20:49:56.722Z,5.58
2024-01-24T20:52:24.021Z,5.47
2024-01-24T20:54:50.879Z,5.29
2024-01-24T20:57:18.523Z,5.25
2024-01-24T20:59:45.510Z,5.22
2024-01-24T21:02:13.968Z,5.18
2024-01-24T21:04:41.114Z,5.13
2024-01-24T21:07:09.033Z,5.14
2024-01-24T21:09:36.098Z,5.45
2024-01-24T21:12:03.177Z,5.59
2024-01-24T21:14:30.109Z,5.28
2024-01-24T21:16:57.069Z,5.39
2024-01-24T21:19:25.825Z,5.46
2024-01-24T21:21:53.489Z,5.10
2024-01-24T21:24:20.551Z,5.29
2024-01-24T21:26:48.401Z,5.28
2024-01-24T21:29:15.452Z,4.99
2024-01-24T21:31:49.088Z,4.88
2024-01-24T21:34:16.242Z,4.91
2024-01-24T21:36:47.883Z,4.93
2024-01-24T21:39:16.411Z,5.07
2024-01-24T21:41:43.278Z,5.04
2024-01-24T21:44:10.183Z,5.00
2024-01-24T21:46:37.108Z,5.10
2024-01-24T21:49:04.083Z,4.95
2024-01-24T21:51:31.957Z,5.09
2024-01-24T21:53:59.107Z,4.92
2024-01-24T21:56:26.040Z,4.79
2024-01-24T21:58:59.300Z,4.95
2024-01-24T22:01:26.326Z,4.95
2024-01-24T22:03:53.389Z,4.83
2024-01-24T22:06:20.341Z,4.80
2024-01-24T22:08:47.290Z,5.13
2024-01-24T22:11:15.547Z,5.38
2024-01-24T22:13:42.546Z,5.28
2024-01-24T22:16:09.600Z,5.31
2024-01-24T22:18:41.215Z,5.23
2024-01-24T22:21:14.726Z,5.39
2024-01-24T22:23:41.632Z,5.43
2024-01-24T22:26:08.600Z,5.42
2024-01-24T22:28:35.558Z,5.94
2024-01-24T22:31:02.675Z,5.69
2024-01-24T22:33:29.885Z,5.22
2024-01-24T22:35:57.016Z,5.26
2024-01-24T22:38:24.626Z,5.09
2024-01-24T22:40:51.729Z,4.87
2024-01-24T22:43:19.025Z,4.92
2024-01-24T22:45:46.480Z,4.75
2024-01-24T22:48:13.747Z,4.63
2024-01-24T22:50:41.478Z,4.80
2024-01-24T22:53:08.725Z,4.67
2024-01-24T22:55:35.932Z,4.49
2024-01-24T22:58:03.732Z,4.67
2024-01-24T23:00:31.100Z,4.70
2024-01-24T23:02:58.228Z,4.61
2024-01-24T23:05:25.360Z,4.50
2024-01-24T23:07:52.518Z,4.79
2024-01-24T23:10:20.855Z,4.66
2024-01-24T23:12:47.946Z,4.59
2024-01-24T23:15:15.039Z,4.71
2024-01-24T23:17:42.348Z,4.70
2024-01-24T23:20:10.618Z,4.75
2024-01-24T23:22:37.638Z,4.88
2024-01-24T23:25:06.066Z,5.19
2024-01-24T23:27:32.998Z,5.43
2024-01-24T23:29:59.928Z,5.58
2024-01-24T23:32:28.263Z,5.37
2024-01-24T23:34:55.615Z,5.13
2024-01-24T23:37:22.765Z,5.07
2024-01-24T23:39:49.935Z,5.14
2024-01-24T23:42:17.260Z,5.28
2024-01-24T23:44:44.279Z,5.10
2024-01-24T23:47:11.270Z,5.03
2024-01-24T23:49:39.008Z,4.99
2024-01-24T23:52:06.677Z,5.40
2024-01-24T23:54:33.865Z,5.23
2024-01-24T23:57:00.810Z,5.23
2024-01-24T23:59:27.780Z,4.93
